Time;durP1;ratioP1;P1;durP2;ratioP2;P2;SDS_P1;SDS_P2;PMS_P1;PMS_P2;Temp;Humidity;BMP_temperature;BMP_pressure;BME280_temperature;BME280_humidity;BME280_pressure;Samples;Min_cycle;Max_cycle;Signal;HPM_P1;HPM_P2
2021/09/12 00:02:07;;;;;;;0.20;0.20;;;;;;;13.72;100.00;99615.75;5052135;28;20045;-75
2021/09/12 00:04:33;;;;;;;0.20;0.20;;;;;;;13.70;100.00;99617.78;5052021;28;20053;-82
2021/09/12 00:06:59;;;;;;;0.20;0.20;;;;;;;13.68;100.00;99616.28;5052309;28;20076;-78
2021/09/12 00:09:24;;;;;;;0.20;0.20;;;;;;;13.63;100.00;99611.34;5051542;28;20063;-76
2021/09/12 00:11:50;;;;;;;0.20;0.20;;;;;;;13.62;100.00;99608.81;5051118;28;20109;-78
2021/09/12 00:14:17;;;;;;;0.20;0.20;;;;;;;13.57;100.00;99611.22;5051378;28;20053;-79
2021/09/12 00:16:42;;;;;;;0.20;0.20;;;;;;;13.57;100.00;99605.78;5050464;28;20060;-81
2021/09/12 00:19:09;;;;;;;0.20;0.20;;;;;;;13.52;100.00;99608.97;5051451;28;20582;-77
2021/09/12 00:21:35;;;;;;;0.20;0.20;;;;;;;13.51;100.00;99607.28;5052847;28;20053;-79
2021/09/12 00:24:01;;;;;;;0.20;0.20;;;;;;;13.47;100.00;99604.06;5068493;28;20294;-79
2021/09/12 00:26:27;;;;;;;0.20;0.20;;;;;;;13.47;100.00;99612.22;5053227;28;20053;-77
2021/09/12 00:28:59;;;;;;;0.20;0.20;;;;;;;13.46;100.00;99615.13;5039759;28;20048;-78
2021/09/12 00:31:26;;;;;;;0.20;0.20;;;;;;;13.44;100.00;99611.72;5054002;28;20075;-78
2021/09/12 00:33:52;;;;;;;0.10;0.10;;;;;;;13.39;100.00;99606.81;5054231;28;20048;-75
2021/09/12 00:36:17;;;;;;;0.20;0.20;;;;;;;13.38;100.00;99599.69;5038049;28;20428;-79
2021/09/12 00:38:43;;;;;;;0.20;0.20;;;;;;;13.34;100.00;99592.88;5050868;28;20180;-80
2021/09/12 00:41:09;;;;;;;0.20;0.20;;;;;;;13.34;100.00;99597.44;5035726;28;20061;-82
2021/09/12 00:43:35;;;;;;;0.20;0.20;;;;;;;13.30;100.00;99593.38;5035761;28;20071;-77
2021/09/12 00:46:06;;;;;;;0.20;0.20;;;;;;;13.30;100.00;99601.53;5052560;28;20112;-80
2021/09/12 00:48:33;;;;;;;0.20;0.20;;;;;;;13.29;100.00;99597.13;5053882;28;20052;-77
2021/09/12 00:50:59;;;;;;;0.20;0.20;;;;;;;13.24;100.00;99601.22;5053015;28;20053;-78
2021/09/12 00:53:25;;;;;;;0.20;0.20;;;;;;;13.21;100.00;99598.78;5053741;28;20049;-78
2021/09/12 00:55:51;;;;;;;0.20;0.20;;;;;;;13.22;100.00;99597.75;5035621;28;20060;-78
2021/09/12 00:58:17;;;;;;;0.20;0.20;;;;;;;13.18;100.00;99607.28;5018540;28;20084;-79
2021/09/12 01:00:43;;;;;;;0.20;0.20;;;;;;;13.13;100.00;99597.94;5035251;28;20087;-79
2021/09/12 01:03:09;;;;;;;0.20;0.20;;;;;;;13.04;100.00;99600.63;5035169;28;20546;-77
2021/09/12 01:05:36;;;;;;;0.20;0.20;;;;;;;13.03;100.00;99598.09;5052155;28;20061;-76
2021/09/12 01:08:01;;;;;;;0.20;0.20;;;;;;;13.00;100.00;99606.56;5053252;28;20515;-79
2021/09/12 01:10:27;;;;;;;0.20;0.20;;;;;;;12.95;100.00;99604.38;5045482;28;20104;-78
2021/09/12 01:12:53;;;;;;;0.20;0.20;;;;;;;12.94;100.00;99593.66;5002004;28;20493;-77
2021/09/12 01:15:19;;;;;;;0.20;0.20;;;;;;;12.92;100.00;99590.28;5055998;28;20059;-75
2021/09/12 01:17:45;;;;;;;0.20;0.20;;;;;;;12.89;100.00;99590.63;5073709;28;20048;-79
2021/09/12 01:20:12;;;;;;;0.20;0.20;;;;;;;12.88;100.00;99578.94;5072418;28;20110;-77
2021/09/12 01:22:37;;;;;;;0.20;0.20;;;;;;;12.84;100.00;99582.16;5073501;28;20056;-82
2021/09/12 01:25:04;;;;;;;0.20;0.20;;;;;;;12.81;100.00;99577.06;5056312;28;20056;-80
2021/09/12 01:27:30;;;;;;;0.20;0.20;;;;;;;12.81;100.00;99582.47;5056202;28;20071;-77
2021/09/12 01:29:55;;;;;;;0.20;0.20;;;;;;;12.83;100.00;99580.44;5073064;28;20061;-75
2021/09/12 01:32:24;;;;;;;0.20;0.20;;;;;;;12.81;100.00;99590.63;5071302;28;20137;-76
2021/09/12 01:34:50;;;;;;;0.20;0.20;;;;;;;12.77;100.00;99581.97;5037677;28;20052;-76
2021/09/12 01:37:16;;;;;;;0.20;0.20;;;;;;;12.70;100.00;99580.94;5071156;28;20068;-74
2021/09/12 01:39:42;;;;;;;0.20;0.20;;;;;;;12.69;100.00;99582.81;5071067;28;20052;-77
2021/09/12 01:42:08;;;;;;;0.20;0.20;;;;;;;12.65;100.00;99578.72;5052453;28;20052;-76
2021/09/12 01:44:34;;;;;;;0.20;0.20;;;;;;;12.62;100.00;99576.34;5019367;28;20501;-78
2021/09/12 01:47:00;;;;;;;0.20;0.20;;;;;;;12.62;100.00;99579.06;5052952;28;20143;-75
2021/09/12 01:49:26;;;;;;;0.20;0.20;;;;;;;12.63;100.00;99580.75;5035717;28;20096;-76
2021/09/12 01:51:52;;;;;;;0.20;0.20;;;;;;;12.62;100.00;99581.78;5036483;28;20121;-77
2021/09/12 01:54:18;;;;;;;0.20;0.20;;;;;;;12.59;100.00;99576.66;5035822;28;20072;-77
2021/09/12 01:56:44;;;;;;;0.20;0.20;;;;;;;12.58;100.00;99568.69;5052223;28;20053;-75
2021/09/12 01:59:10;;;;;;;0.20;0.20;;;;;;;12.55;100.00;99572.59;5052444;28;20065;-76
2021/09/12 02:01:36;;;;;;;0.20;0.20;;;;;;;12.53;100.00;99570.03;5070539;28;20060;-76
2021/09/12 02:04:01;;;;;;;0.20;0.20;;;;;;;12.51;100.00;99573.94;5052340;28;20075;-76
2021/09/12 02:06:27;;;;;;;0.20;0.20;;;;;;;12.46;100.00;99568.16;5068979;28;20056;-77
2021/09/12 02:08:53;;;;;;;0.20;0.20;;;;;;;12.41;100.00;99555.09;5052240;28;20388;-77
2021/09/12 02:11:20;;;;;;;0.20;0.20;;;;;;;12.44;100.00;99567.50;5035543;28;20095;-78
2021/09/12 02:13:46;;;;;;;0.20;0.20;;;;;;;12.42;100.00;99564.06;5051753;28;20052;-75
2021/09/12 02:16:12;;;;;;;0.20;0.20;;;;;;;12.38;100.00;99570.84;5070162;28;20071;-75
2021/09/12 02:18:38;;;;;;;0.20;0.20;;;;;;;12.29;100.00;99570.84;5051858;28;20112;-76
2021/09/12 02:21:03;;;;;;;0.20;0.20;;;;;;;12.23;100.00;99574.19;5051584;28;20447;-76
2021/09/12 02:23:29;;;;;;;0.20;0.20;;;;;;;12.22;100.00;99567.06;5035010;28;20048;-77
2021/09/12 02:25:55;;;;;;;0.20;0.20;;;;;;;12.17;100.00;99569.41;5070296;28;20052;-75
2021/09/12 02:28:21;;;;;;;0.20;0.20;;;;;;;12.15;100.00;99568.75;5069072;28;20424;-75
2021/09/12 02:30:46;;;;;;;0.20;0.20;;;;;;;12.14;100.00;99571.59;5069927;28;20068;-76
2021/09/12 02:33:13;;;;;;;0.20;0.20;;;;;;;12.09;100.00;99560.41;5070152;28;20048;-73
2021/09/12 02:35:38;;;;;;;0.20;0.20;;;;;;;12.07;100.00;99563.28;5070158;28;20225;-74
2021/09/12 02:38:04;;;;;;;0.20;0.20;;;;;;;12.05;100.00;99562.59;5035257;28;20291;-76
2021/09/12 02:40:30;;;;;;;0.20;0.20;;;;;;;12.03;100.00;99556.50;5068072;28;20066;-75
2021/09/12 02:42:56;;;;;;;0.20;0.20;;;;;;;12.03;100.00;99559.22;5035483;28;20084;-77
2021/09/12 02:45:21;;;;;;;0.20;0.20;;;;;;;12.00;100.00;99564.97;5071390;28;20578;-78
2021/09/12 02:47:47;;;;;;;0.20;0.20;;;;;;;11.97;100.00;99557.16;5053502;28;20419;-77
2021/09/12 02:50:13;;;;;;;0.20;0.20;;;;;;;11.95;100.00;99564.56;5052552;28;20079;-75
2021/09/12 02:52:39;;;;;;;0.20;0.20;;;;;;;11.96;100.00;99566.31;5070103;28;20503;-76
2021/09/12 02:55:06;;;;;;;0.20;0.20;;;;;;;11.95;100.00;99562.72;5051793;28;20048;-74
2021/09/12 02:57:32;;;;;;;0.30;0.30;;;;;;;11.93;100.00;99561.19;5068202;28;20060;-77
2021/09/12 02:59:59;;;;;;;0.20;0.20;;;;;;;11.88;100.00;99555.41;5051499;28;20067;-75
2021/09/12 03:02:25;;;;;;;0.20;0.20;;;;;;;11.86;100.00;99557.44;5070260;28;20419;-76
2021/09/12 03:04:51;;;;;;;0.20;0.20;;;;;;;11.85;100.00;99555.72;5070119;28;20060;-77
2021/09/12 03:07:17;;;;;;;0.20;0.20;;;;;;;11.86;100.00;99560.16;5035420;28;20527;-76
2021/09/12 03:09:42;;;;;;;0.20;0.20;;;;;;;11.87;100.00;99562.69;5051922;28;20136;-77
2021/09/12 03:12:08;;;;;;;0.20;0.20;;;;;;;11.89;100.00;99565.25;5069739;28;20072;-80
2021/09/12 03:14:34;;;;;;;0.20;0.20;;;;;;;11.92;100.00;99570.31;5067991;28;20056;-76
2021/09/12 03:17:00;;;;;;;0.30;0.30;;;;;;;11.94;100.00;99573.72;5069532;28;20056;-76
2021/09/12 03:19:25;;;;;;;0.20;0.20;;;;;;;11.96;100.00;99566.31;5051725;28;20056;-75
2021/09/12 03:21:51;;;;;;;0.20;0.20;;;;;;;12.02;100.00;99576.47;5051817;28;20143;-77
2021/09/12 03:24:17;;;;;;;0.20;0.20;;;;;;;12.06;100.00;99583.25;5069797;28;20101;-78
2021/09/12 03:26:43;;;;;;;0.20;0.20;;;;;;;12.05;100.00;99584.28;5069746;28;20401;-77
2021/09/12 03:29:08;;;;;;;0.20;0.20;;;;;;;12.09;100.00;99582.94;5052096;28;20423;-76
2021/09/12 03:31:34;;;;;;;0.20;0.20;;;;;;;12.12;100.00;99577.19;5069042;28;20053;-79
2021/09/12 03:34:00;;;;;;;0.20;0.20;;;;;;;12.21;100.00;99576.22;5069536;28;20056;-77
2021/09/12 03:36:26;;;;;;;0.20;0.20;;;;;;;12.37;100.00;99574.59;5070078;28;20534;-75
2021/09/12 03:38:52;;;;;;;0.30;0.30;;;;;;;12.49;100.00;99573.25;5051603;28;20412;-76
2021/09/12 03:41:17;;;;;;;0.20;0.20;;;;;;;12.56;100.00;99579.72;5069289;28;20412;-77
2021/09/12 03:43:43;;;;;;;0.20;0.20;;;;;;;12.47;100.00;99573.44;5018401;28;20550;-79
2021/09/12 03:46:09;;;;;;;0.20;0.20;;;;;;;12.29;100.00;99581.66;5051416;28;20567;-77
2021/09/12 03:48:35;;;;;;;0.20;0.20;;;;;;;12.16;100.00;99583.97;5053334;28;20122;-77
2021/09/12 03:51:00;;;;;;;0.20;0.20;;;;;;;12.05;100.00;99576.16;5038740;28;20056;-79
2021/09/12 03:53:26;;;;;;;0.20;0.20;;;;;;;11.98;100.00;99577.81;5056723;28;20539;-77
2021/09/12 03:55:52;;;;;;;0.20;0.20;;;;;;;11.97;100.00;99573.41;5058592;28;20095;-80
2021/09/12 03:58:17;;;;;;;0.20;0.20;;;;;;;11.95;100.00;99570.84;5058943;28;20148;-80
2021/09/12 04:00:43;;;;;;;0.20;0.20;;;;;;;12.00;100.00;99578.50;5058033;28;20098;-77
2021/09/12 04:03:09;;;;;;;0.20;0.20;;;;;;;11.99;100.00;99582.19;5058488;28;20214;-76
2021/09/12 04:05:35;;;;;;;0.20;0.20;;;;;;;11.99;100.00;99579.50;5057677;28;20159;-78
2021/09/12 04:08:00;;;;;;;0.28;0.28;;;;;;;11.97;100.00;99576.13;5058641;28;20079;-77
2021/09/12 04:10:26;;;;;;;0.20;0.20;;;;;;;11.99;100.00;99576.78;5042632;28;20052;-74
2021/09/12 04:12:52;;;;;;;0.20;0.20;;;;;;;12.00;100.00;99578.50;5042618;28;20751;-75
2021/09/12 04:15:18;;;;;;;0.30;0.30;;;;;;;12.04;100.00;99575.31;5078665;28;20523;-78
2021/09/12 04:17:43;;;;;;;0.25;0.25;;;;;;;12.05;100.00;99570.72;5061023;28;20440;-73
2021/09/12 04:20:10;;;;;;;0.20;0.20;;;;;;;12.09;100.00;99577.50;5057893;28;20048;-77
2021/09/12 04:22:35;;;;;;;0.20;0.20;;;;;;;12.15;100.00;99573.31;5043827;28;20063;-77
2021/09/12 04:25:02;;;;;;;0.30;0.30;;;;;;;12.20;100.00;99577.22;5043853;28;20068;-77
2021/09/12 04:27:27;;;;;;;0.30;0.30;;;;;;;12.24;100.00;99575.88;5059249;28;20193;-78
2021/09/12 04:29:53;;;;;;;0.30;0.30;;;;;;;12.28;100.00;99582.66;5039668;28;20147;-77
2021/09/12 04:32:19;;;;;;;0.30;0.30;;;;;;;12.43;100.00;99584.75;5073807;28;20052;-78
2021/09/12 04:34:47;;;;;;;0.30;0.30;;;;;;;12.44;100.00;99587.31;5055257;28;20056;-74
2021/09/12 04:37:14;;;;;;;0.20;0.20;;;;;;;12.46;100.00;99584.41;5054914;28;20052;-81
2021/09/12 04:39:40;;;;;;;0.30;0.30;;;;;;;12.53;100.00;99582.75;5055406;28;20220;-77
2021/09/12 04:42:06;;;;;;;0.20;0.20;;;;;;;12.56;100.00;99579.72;5021882;28;20055;-76
2021/09/12 04:44:31;;;;;;;0.20;0.20;;;;;;;12.62;100.00;99578.22;5055612;28;20060;-79
2021/09/12 04:46:57;;;;;;;0.20;0.20;;;;;;;12.74;100.00;99577.72;5055540;28;20139;-78
2021/09/12 04:49:23;;;;;;;0.30;0.30;;;;;;;12.95;99.87;99576.41;5055312;28;20447;-78
2021/09/12 04:51:49;;;;;;;0.30;0.30;;;;;;;13.21;98.80;99574.34;5055352;28;20414;-77
2021/09/12 04:54:15;;;;;;;0.30;0.30;;;;;;;13.36;97.97;99571.00;5038670;28;20529;-80
2021/09/12 04:56:40;;;;;;;0.20;0.20;;;;;;;13.38;97.21;99572.53;5039041;28;20547;-78
2021/09/12 04:59:06;;;;;;;0.20;0.20;;;;;;;13.48;96.99;99564.19;5054839;28;20063;-77
2021/09/12 05:01:32;;;;;;;0.20;0.20;;;;;;;13.58;96.57;99566.72;5041834;28;20049;-79
2021/09/12 05:03:59;;;;;;;0.22;0.22;;;;;;;13.68;95.81;99578.25;5033543;28;20513;-79
2021/09/12 05:06:25;;;;;;;0.20;0.20;;;;;;;13.81;95.36;99575.81;5034789;28;20107;-80
2021/09/12 05:08:51;;;;;;;0.20;0.20;;;;;;;13.75;94.67;99574.66;5018706;28;20053;-77
2021/09/12 05:11:16;;;;;;;0.20;0.20;;;;;;;13.74;94.61;99574.81;5036127;28;20505;-78
2021/09/12 05:13:42;;;;;;;0.20;0.20;;;;;;;13.76;94.94;99583.66;5054435;28;20132;-82
2021/09/12 05:16:08;;;;;;;0.20;0.20;;;;;;;13.73;94.93;99573.97;5036094;28;20056;-80
2021/09/12 05:18:34;;;;;;;0.20;0.20;;;;;;;13.88;94.78;99576.81;5019369;28;20056;-81
2021/09/12 05:20:59;;;;;;;0.30;0.30;;;;;;;14.04;94.41;99575.94;5002287;28;20083;-77
2021/09/12 05:23:26;;;;;;;0.30;0.30;;;;;;;14.22;93.82;99568.41;5037834;28;20191;-78
2021/09/12 05:25:52;;;;;;;0.30;0.30;;;;;;;14.42;92.85;99559.78;5063460;28;20132;-79
2021/09/12 05:28:18;;;;;;;0.30;0.30;;;;;;;14.71;92.31;99550.97;5043469;28;20173;-79
2021/09/12 05:30:43;;;;;;;0.40;0.40;;;;;;;14.99;91.08;99556.75;5025484;28;20362;-77
2021/09/12 05:33:09;;;;;;;0.30;0.30;;;;;;;15.33;89.26;99552.69;5030862;28;20048;-78
2021/09/12 05:35:35;;;;;;;0.60;0.60;;;;;;;16.06;86.62;99557.41;5040064;28;20056;-79
2021/09/12 05:38:01;;;;;;;0.30;0.30;;;;;;;16.88;82.74;99548.94;5023105;28;20077;-80
2021/09/12 05:40:27;;;;;;;0.30;0.30;;;;;;;17.29;80.51;99552.88;5052599;28;20065;-81
2021/09/12 05:42:53;;;;;;;0.45;0.45;;;;;;;17.81;77.31;99560.69;5020699;28;20052;-82
2021/09/12 05:45:19;;;;;;;0.60;0.60;;;;;;;18.31;75.99;99546.84;5036299;28;20056;-76
2021/09/12 05:47:45;;;;;;;0.70;0.70;;;;;;;19.10;72.16;99561.88;5046532;28;20047;-74
2021/09/12 05:50:11;;;;;;;0.70;0.70;;;;;;;19.72;70.12;99552.41;5012863;28;20112;-79
2021/09/12 05:52:37;;;;;;;0.60;0.60;;;;;;;20.22;67.25;99549.97;5031007;28;20052;-78
2021/09/12 05:55:03;;;;;;;0.70;0.70;;;;;;;20.58;65.94;99548.56;5038161;28;20056;-76
2021/09/12 05:57:29;;;;;;;0.38;0.38;;;;;;;20.63;65.95;99551.53;5046175;28;20053;-75
2021/09/12 05:59:55;;;;;;;0.25;0.25;;;;;;;20.05;67.91;99554.25;5048824;28;20235;-71
2021/09/12 06:02:21;;;;;;;0.20;0.20;;;;;;;19.39;69.41;99545.03;5066627;28;20048;-76
2021/09/12 06:04:47;;;;;;;0.30;0.30;;;;;;;19.16;70.37;99545.44;5027268;28;20056;-77
2021/09/12 06:07:13;;;;;;;0.20;0.20;;;;;;;18.97;71.31;99541.59;5028468;28;20095;-72
2021/09/12 06:09:38;;;;;;;0.20;0.20;;;;;;;18.70;72.80;99545.31;5046895;28;20185;-78
2021/09/12 06:12:06;;;;;;;0.20;0.20;;;;;;;18.46;71.34;99543.97;5052496;28;20048;-76
2021/09/12 06:14:33;;;;;;;0.20;0.20;;;;;;;18.33;73.14;99539.28;5053038;28;20534;-76
2021/09/12 06:17:04;;;;;;;0.20;0.20;;;;;;;18.05;74.19;99551.16;5052433;28;20048;-78
2021/09/12 06:19:36;;;;;;;0.20;0.20;;;;;;;18.20;74.25;99539.22;5029866;28;20147;-77
2021/09/12 06:22:04;;;;;;;0.20;0.20;;;;;;;18.17;74.22;99545.97;5053049;28;20063;-79
2021/09/12 06:24:30;;;;;;;0.20;0.20;;;;;;;17.76;74.64;99548.66;5025244;28;20198;-76
2021/09/12 06:26:56;;;;;;;0.20;0.20;;;;;;;17.74;75.73;99539.78;5042838;28;20079;-75
2021/09/12 06:29:22;;;;;;;0.20;0.20;;;;;;;17.59;75.40;99548.94;5033378;28;20077;-77
2021/09/12 06:31:48;;;;;;;0.20;0.20;;;;;;;17.75;75.64;99549.69;5050392;28;20090;-77
2021/09/12 06:34:14;;;;;;;0.30;0.30;;;;;;;17.81;74.87;99557.97;5040013;28;20064;-76
2021/09/12 06:36:41;;;;;;;0.30;0.30;;;;;;;18.00;73.42;99563.75;5024016;28;20551;-76
2021/09/12 06:39:07;;;;;;;0.30;0.30;;;;;;;18.17;72.41;99556.03;5030021;28;20088;-76
2021/09/12 06:41:33;;;;;;;0.30;0.30;;;;;;;18.46;71.21;99557.66;5014097;28;20041;-77
2021/09/12 06:44:00;;;;;;;0.30;0.30;;;;;;;19.01;69.73;99563.94;5028882;28;20045;-77
2021/09/12 06:46:26;;;;;;;0.30;0.30;;;;;;;18.78;69.73;99553.38;5014344;28;20071;-78
2021/09/12 06:48:52;;;;;;;0.32;0.32;;;;;;;18.97;69.10;99551.72;5049597;28;20055;-78
2021/09/12 06:51:18;;;;;;;0.38;0.38;;;;;;;19.41;68.22;99558.50;5003127;28;20044;-77
2021/09/12 06:53:43;;;;;;;0.30;0.30;;;;;;;19.42;67.83;99562.94;5029740;28;21605;-77
2021/09/12 06:56:09;;;;;;;0.30;0.30;;;;;;;19.86;66.62;99562.31;5029736;28;20145;-79
2021/09/12 06:58:35;;;;;;;0.30;0.30;;;;;;;19.76;67.10;99561.91;5031788;28;20527;-79
2021/09/12 07:01:01;;;;;;;0.30;0.30;;;;;;;19.77;67.00;99558.09;5046741;28;20056;-77
2021/09/12 07:03:27;;;;;;;0.30;0.30;;;;;;;19.66;67.83;99550.50;5031703;28;20528;-77
2021/09/12 07:05:53;;;;;;;0.30;0.30;;;;;;;20.04;66.96;99558.03;5001657;28;20051;-74
2021/09/12 07:08:19;;;;;;;0.30;0.30;;;;;;;20.04;66.23;99566.25;5031080;28;20048;-71
2021/09/12 07:10:45;;;;;;;0.30;0.30;;;;;;;20.03;65.78;99562.69;5049374;28;20389;-73
2021/09/12 07:13:11;;;;;;;0.30;0.30;;;;;;;20.19;65.11;99567.72;5024573;28;20053;-69
2021/09/12 07:15:36;;;;;;;0.30;0.30;;;;;;;20.33;64.54;99565.78;5030535;28;20048;-72
2021/09/12 07:18:03;;;;;;;0.30;0.30;;;;;;;20.60;64.08;99557.44;5045035;28;20131;-72
2021/09/12 07:20:29;;;;;;;0.20;0.20;;;;;;;20.55;63.82;99551.75;5048624;28;20072;-70
2021/09/12 07:22:55;;;;;;;0.22;0.22;;;;;;;20.58;63.06;99556.81;5029614;28;20087;-69
2021/09/12 07:25:22;;;;;;;0.20;0.20;;;;;;;20.30;62.61;99552.47;5031199;28;20052;-69
2021/09/12 07:27:48;;;;;;;0.20;0.20;;;;;;;20.18;63.50;99559.69;5032451;28;20057;-69
2021/09/12 07:30:14;;;;;;;0.20;0.20;;;;;;;20.08;63.49;99560.16;5052892;28;20072;-69
2021/09/12 07:32:41;;;;;;;0.20;0.20;;;;;;;20.03;63.90;99559.94;5035213;28;20049;-69
2021/09/12 07:35:08;;;;;;;0.22;0.22;;;;;;;20.15;63.77;99568.38;5053328;28;20156;-69
2021/09/12 07:37:34;;;;;;;0.30;0.30;;;;;;;20.44;63.12;99562.34;4999417;28;20061;-68
2021/09/12 07:40:00;;;;;;;0.20;0.20;;;;;;;20.65;62.66;99565.88;4982936;28;20064;-68
2021/09/12 07:42:27;;;;;;;0.20;0.20;;;;;;;20.53;63.13;99553.88;5016100;28;20049;-69
2021/09/12 07:44:52;;;;;;;0.20;0.20;;;;;;;20.34;63.45;99556.47;5014917;28;20063;-69
2021/09/12 07:47:18;;;;;;;0.40;0.40;;;;;;;20.48;63.53;99549.03;4999210;28;20468;-69
2021/09/12 07:49:44;;;;;;;0.20;0.20;;;;;;;20.31;64.19;99548.66;4982723;28;20071;-69
2021/09/12 07:52:10;;;;;;;0.20;0.20;;;;;;;20.14;65.09;99553.78;4999320;28;20057;-69
2021/09/12 07:54:36;;;;;;;0.20;0.20;;;;;;;20.05;65.83;99554.25;4999782;28;20524;-70
2021/09/12 07:57:02;;;;;;;0.28;0.28;;;;;;;20.26;65.82;99550.34;5015497;28;20084;-69
2021/09/12 07:59:28;;;;;;;0.40;0.40;;;;;;;21.11;62.89;99548.28;5031910;28;20075;-67
2021/09/12 08:01:57;;;;;;;0.30;0.30;;;;;;;21.52;60.57;99538.66;5031778;28;20525;-69
2021/09/12 08:04:23;;;;;;;0.40;0.40;;;;;;;21.66;59.26;99540.22;5015191;28;20092;-69
2021/09/12 08:06:49;;;;;;;0.70;0.70;;;;;;;22.66;56.64;99534.44;5015123;28;20087;-70
2021/09/12 08:09:15;;;;;;;1.30;1.30;;;;;;;23.85;53.38;99536.44;4998760;28;20050;-70
2021/09/12 08:11:40;;;;;;;0.90;0.90;;;;;;;25.46;49.28;99544.66;5014892;28;20488;-70
2021/09/12 08:14:06;;;;;;;0.60;0.60;;;;;;;25.56;47.80;99553.16;5012012;28;20058;-70
2021/09/12 08:16:33;;;;;;;0.50;0.50;;;;;;;25.99;46.77;99551.59;5010820;28;20168;-69
2021/09/12 08:18:59;;;;;;;0.38;0.38;;;;;;;25.62;47.73;99554.06;4997771;28;20088;-69
2021/09/12 08:21:25;;;;;;;0.40;0.40;;;;;;;25.14;48.31;99549.91;5015138;28;20053;-69
2021/09/12 08:23:51;;;;;;;0.40;0.40;;;;;;;25.38;48.33;99561.69;5012915;28;20152;-70
2021/09/12 08:26:17;;;;;;;0.30;0.30;;;;;;;25.09;48.82;99555.34;5011646;28;20049;-70
2021/09/12 08:28:43;;;;;;;0.30;0.30;;;;;;;24.76;49.27;99551.41;5003463;28;20148;-69
2021/09/12 08:31:09;;;;;;;0.20;0.20;;;;;;;24.01;50.31;99549.50;4998426;28;20072;-69
2021/09/12 08:33:35;;;;;;;0.20;0.20;;;;;;;23.80;51.36;99551.78;5014623;28;20062;-70
2021/09/12 08:36:01;;;;;;;0.20;0.20;;;;;;;23.50;52.52;99551.00;5014523;28;20049;-70
2021/09/12 08:38:26;;;;;;;0.20;0.20;;;;;;;23.34;52.85;99553.38;5022545;28;20061;-70
2021/09/12 08:40:57;;;;;;;0.30;0.30;;;;;;;23.07;51.66;99541.06;5000215;28;20052;-68
2021/09/12 08:43:24;;;;;;;0.40;0.40;;;;;;;24.10;51.01;99539.75;5051225;28;20096;-71
2021/09/12 08:45:50;;;;;;;0.60;0.60;;;;;;;24.51;48.79;99535.13;5015815;28;20360;-71
2021/09/12 08:48:16;;;;;;;0.30;0.30;;;;;;;24.59;48.28;99531.13;5034545;28;20057;-70
2021/09/12 08:50:42;;;;;;;0.30;0.30;;;;;;;24.58;49.12;99526.69;5017595;28;20102;-70
2021/09/12 08:53:10;;;;;;;0.40;0.40;;;;;;;24.61;49.15;99524.28;5017610;28;20186;-71
2021/09/12 08:55:36;;;;;;;0.30;0.30;;;;;;;24.01;49.91;99541.19;5018625;28;20049;-70
2021/09/12 08:58:04;;;;;;;0.30;0.30;;;;;;;23.81;51.11;99538.81;5017567;28;20466;-70
2021/09/12 09:00:30;;;;;;;0.30;0.30;;;;;;;23.73;50.80;99531.75;5014704;28;20545;-70
2021/09/12 09:02:58;;;;;;;0.30;0.30;;;;;;;24.38;49.24;99549.19;5001449;28;20389;-69
2021/09/12 09:05:32;;;;;;;0.30;0.30;;;;;;;23.76;50.90;99545.03;5017962;28;20531;-71
2021/09/12 09:08:12;;;;;;;0.20;0.20;;;;;;;23.72;50.82;99543.84;5017587;28;20596;-69
2021/09/12 09:10:38;;;;;;;0.30;0.30;;;;;;;23.44;51.33;99543.66;5051701;28;20053;-69
2021/09/12 09:13:04;;;;;;;0.30;0.30;;;;;;;23.41;51.23;99541.41;5017303;28;20052;-69
2021/09/12 09:15:31;;;;;;;0.30;0.30;;;;;;;23.46;51.20;99544.28;5000997;28;20057;-69
2021/09/12 09:17:57;;;;;;;0.20;0.20;;;;;;;23.61;50.89;99547.41;5000240;28;20103;-69
2021/09/12 09:20:33;;;;;;;0.20;0.20;;;;;;;23.30;51.96;99545.84;4983485;28;20049;-70
2021/09/12 09:23:01;;;;;;;0.20;0.20;;;;;;;23.15;52.94;99543.53;5032002;28;20146;-69
2021/09/12 09:25:29;;;;;;;0.20;0.20;;;;;;;22.66;54.35;99544.63;5014411;28;20058;-70
2021/09/12 09:28:02;;;;;;;0.10;0.10;;;;;;;22.52;54.61;99539.28;5014592;28;20053;-71
2021/09/12 09:30:47;;;;;;;0.10;0.10;;;;;;;22.36;54.90;99542.66;4981925;28;20053;-70
2021/09/12 09:33:23;;;;;;;0.10;0.10;;;;;;;22.13;56.37;99549.69;4997543;28;20045;-69
2021/09/12 09:35:53;;;;;;;0.10;0.10;;;;;;;22.01;56.84;99558.91;5013633;28;20153;-70
2021/09/12 09:38:25;;;;;;;0.10;0.10;;;;;;;21.30;58.26;99552.78;5052222;28;20147;-69
2021/09/12 09:41:04;;;;;;;0.10;0.10;;;;;;;20.98;59.29;99540.09;5037584;28;20541;-70
2021/09/12 09:43:44;;;;;;;0.10;0.10;;;;;;;20.64;60.03;99548.53;5055683;28;20052;-69
2021/09/12 09:46:41;;;;;;;0.10;0.10;;;;;;;20.37;61.09;99539.56;5054928;28;20060;-69
2021/09/12 09:49:25;;;;;;;0.10;0.10;;;;;;;20.16;62.07;99543.44;5038346;28;20251;-69
2021/09/12 09:51:56;;;;;;;0.10;0.10;;;;;;;19.89;62.66;99550.91;5054636;28;20146;-68
2021/09/12 09:54:29;;;;;;;0.10;0.10;;;;;;;19.72;63.50;99549.66;5071310;28;20504;-69
2021/09/12 09:56:55;;;;;;;;;;;;;;;19.72;64.06;99549.66;5025520;28;20075;-69
2021/09/12 09:59:22;;;;;;;0.10;0.10;;;;;;;19.63;64.64;99539.97;5017145;28;19916;-69
2021/09/12 10:01:50;;;;;;;0.10;0.10;;;;;;;19.55;65.17;99540.16;5016634;28;20121;-69
2021/09/12 10:04:23;;;;;;;0.20;0.20;;;;;;;19.53;66.34;99548.59;5033138;28;20063;-69
2021/09/12 10:06:49;;;;;;;0.10;0.10;;;;;;;19.63;66.23;99550.94;5032569;28;20053;-69
2021/09/12 10:09:16;;;;;;;0.10;0.10;;;;;;;19.36;65.78;99553.66;5033058;28;20514;-70
2021/09/12 10:11:47;;;;;;;0.10;0.10;;;;;;;19.20;66.28;99546.72;5032888;28;20535;-72
2021/09/12 10:14:16;;;;;;;0.10;0.10;;;;;;;19.34;67.13;99553.00;5033040;28;20144;-69
2021/09/12 10:16:42;;;;;;;0.10;0.10;;;;;;;19.24;67.08;99547.13;5000121;28;20084;-67
2021/09/12 10:19:08;;;;;;;0.10;0.10;;;;;;;19.25;67.47;99548.81;5033204;28;20156;-69
2021/09/12 10:21:34;;;;;;;0.10;0.10;;;;;;;19.15;67.93;99542.88;5016382;28;20060;-69
2021/09/12 10:24:08;;;;;;;0.20;0.20;;;;;;;19.11;68.20;99536.16;5000038;28;20088;-69
2021/09/12 10:26:38;;;;;;;0.20;0.20;;;;;;;19.14;68.09;99544.78;5016512;28;20060;-70
2021/09/12 10:29:05;;;;;;;0.17;0.17;;;;;;;19.34;67.35;99535.72;4999805;28;20044;-69
2021/09/12 10:31:33;;;;;;;0.10;0.10;;;;;;;19.34;67.02;99531.09;5032950;28;20542;-68
2021/09/12 10:34:10;;;;;;;0.10;0.10;;;;;;;19.45;66.26;99533.22;5032774;28;20132;-69
2021/09/12 10:36:37;;;;;;;0.20;0.20;;;;;;;19.69;66.26;99530.88;5050236;28;20057;-73
2021/09/12 10:39:21;;;;;;;0.15;0.15;;;;;;;19.58;67.03;99534.25;5032521;28;20148;-69
2021/09/12 10:42:13;;;;;;;0.20;0.20;;;;;;;19.52;67.64;99531.31;5050733;28;20060;-69
2021/09/12 10:44:40;;;;;;;0.10;0.10;;;;;;;19.46;67.33;99534.06;4995681;28;20560;-69
2021/09/12 10:47:10;;;;;;;0.10;0.10;;;;;;;19.32;68.22;99537.84;5050965;28;20045;-71
2021/09/12 10:49:36;;;;;;;0.13;0.13;;;;;;;19.21;69.02;99533.84;5016204;28;20041;-69
2021/09/12 10:52:02;;;;;;;0.10;0.10;;;;;;;19.13;70.07;99534.06;4999494;28;20061;-69
2021/09/12 10:54:28;;;;;;;0.10;0.10;;;;;;;19.13;69.06;99534.06;5015587;28;20053;-69
2021/09/12 10:57:08;;;;;;;0.15;0.15;;;;;;;19.12;69.36;99524.13;5050140;28;20063;-69
2021/09/12 10:59:33;;;;;;;0.10;0.10;;;;;;;19.08;69.77;99526.44;5032434;28;20052;-69
2021/09/12 11:01:59;;;;;;;0.10;0.10;;;;;;;19.02;69.56;99521.81;5050805;28;20088;-69
2021/09/12 11:04:30;;;;;;;0.10;0.10;;;;;;;18.98;69.97;99515.91;5020071;28;20151;-68
2021/09/12 11:07:04;;;;;;;0.20;0.20;;;;;;;19.14;69.41;99520.13;5019728;28;20061;-68
2021/09/12 11:09:32;;;;;;;0.20;0.20;;;;;;;19.40;68.42;99516.53;5019802;28;20112;-69
2021/09/12 11:11:59;;;;;;;0.20;0.20;;;;;;;19.71;67.97;99515.06;5035819;28;20053;-68
2021/09/12 11:14:26;;;;;;;0.20;0.20;;;;;;;19.80;67.66;99513.78;5054114;28;20048;-69
2021/09/12 11:16:52;;;;;;;0.10;0.10;;;;;;;19.83;66.85;99516.09;5019076;28;20091;-68
2021/09/12 11:19:18;;;;;;;0.10;0.10;;;;;;;19.68;66.92;99515.50;5036263;28;20064;-69
2021/09/12 11:21:49;;;;;;;0.10;0.10;;;;;;;19.83;66.93;99512.50;5038676;28;20427;-68
2021/09/12 11:24:24;;;;;;;0.10;0.10;;;;;;;19.76;67.17;99518.00;5055741;28;20044;-69
2021/09/12 11:26:59;;;;;;;0.20;0.20;;;;;;;19.71;68.00;99515.06;5039365;28;20067;-69
2021/09/12 11:29:35;;;;;;;0.20;0.20;;;;;;;19.78;67.76;99502.16;5055773;28;20075;-68